createdAt,value
2018-08-20T00:00:30.202Z,73.6
2018-08-20T00:01:40.285Z,73.6
2018-08-20T00:02:50.382Z,73.57
2018-08-20T00:04:00.705Z,73.6
2018-08-20T00:05:10.535Z,73.41
2018-08-20T00:06:20.353Z,73.57
2018-08-20T00:07:30.433Z,74.15
2018-08-20T00:08:40.020Z,74.05
2018-08-20T00:09:50.134Z,74.24
2018-08-20T00:11:00.721Z,74.05
2018-08-20T00:12:10.818Z,73.37
2018-08-20T00:13:20.920Z,74.05
2018-08-20T00:14:30.983Z,74.15
2018-08-20T00:15:41.067Z,74.05
2018-08-20T00:16:51.148Z,74.05
2018-08-20T00:18:01.228Z,74.34
2018-08-20T00:19:11.316Z,74.34
2018-08-20T00:20:21.389Z,74.24
2018-08-20T00:21:31.478Z,73.95
2018-08-20T00:22:41.556Z,73.95
2018-08-20T00:23:51.616Z,74.05
2018-08-20T00:25:01.734Z,73.95
2018-08-20T00:26:11.518Z,73.95
2018-08-20T00:27:21.596Z,74.24
2018-08-20T00:28:31.422Z,73.95
2018-08-20T00:29:41.485Z,74.21
2018-08-20T00:30:51.570Z,74.21
2018-08-20T00:32:01.633Z,74.3
2018-08-20T00:33:11.778Z,74.01
2018-08-20T00:34:21.875Z,73.33
2018-08-20T00:35:31.705Z,73.47
2018-08-20T00:36:41.780Z,73.27
2018-08-20T00:37:51.604Z,73.47
2018-08-20T00:39:01.742Z,73.66
2018-08-20T00:40:11.830Z,73.66
2018-08-20T00:41:21.930Z,73.66
2018-08-20T00:42:32.028Z,73.57
2018-08-20T00:43:42.098Z,73.47
2018-08-20T00:44:51.972Z,73.37
2018-08-20T00:46:02.109Z,73.53
2018-08-20T00:47:11.936Z,73.24
2018-08-20T00:48:22.016Z,74.01
2018-08-20T00:49:31.812Z,74.3
2018-08-20T00:50:41.637Z,73.33
2018-08-20T00:51:51.724Z,73.43
2018-08-20T00:53:01.819Z,73.43
2018-08-20T00:54:11.897Z,73.57
2018-08-20T00:55:21.976Z,73.53
2018-08-20T00:56:32.061Z,73.53
2018-08-20T00:57:42.146Z,73.53
2018-08-20T00:58:52.217Z,73.57
2018-08-20T01:00:02.095Z,73.43
2018-08-20T01:01:12.191Z,73.57
2018-08-20T01:02:22.320Z,73.63
2018-08-20T01:03:32.144Z,73.66
2018-08-20T01:04:41.680Z,73.66
2018-08-20T01:05:50.980Z,73.75
2018-08-20T01:07:01.065Z,73.47
2018-08-20T01:08:11.146Z,73.66
2018-08-20T01:09:20.957Z,73.53
2018-08-20T01:10:30.518Z,73.53
2018-08-20T01:11:40.593Z,73.53
2018-08-20T01:12:50.674Z,73.53
2018-08-20T01:14:00.482Z,73.27
2018-08-20T01:15:10.317Z,73.43
2018-08-20T01:16:20.383Z,74.01
2018-08-20T01:17:30.435Z,73.43
2018-08-20T01:18:40.515Z,73.43
2018-08-20T01:19:50.599Z,73.43
2018-08-20T01:21:00.417Z,73.24
2018-08-20T01:22:10.497Z,74.01
2018-08-20T01:23:20.604Z,73.33
2018-08-20T01:24:30.678Z,73.24
2018-08-20T01:25:40.779Z,73.43
2018-08-20T01:26:50.851Z,73.82
2018-08-20T01:28:00.934Z,74.01
2018-08-20T01:29:11.008Z,73.33
2018-08-20T01:30:20.563Z,73.43
2018-08-20T01:31:30.651Z,74.3
2018-08-20T01:32:40.707Z,73.33
2018-08-20T01:33:50.274Z,74.01
2018-08-20T01:35:00.086Z,74.3
2018-08-20T01:36:10.156Z,73.91
2018-08-20T01:37:19.967Z,74.3
2018-08-20T01:38:30.049Z,74.01
2018-08-20T01:39:39.854Z,74.01
2018-08-20T01:40:49.920Z,73.91
2018-08-20T01:42:00.021Z,74.11
2018-08-20T01:43:10.126Z,74.3
2018-08-20T01:44:20.199Z,74.11
2018-08-20T01:45:30.012Z,73.97
2018-08-20T01:46:40.111Z,74.27
2018-08-20T01:47:49.909Z,74.01
2018-08-20T01:49:00.039Z,73.97
2018-08-20T01:50:10.116Z,74.07
2018-08-20T01:51:20.200Z,73.97
2018-08-20T01:52:30.286Z,74.17
2018-08-20T01:53:40.100Z,73.97
2018-08-20T01:54:50.230Z,73.88
2018-08-20T01:56:00.419Z,74.36
2018-08-20T01:57:10.519Z,73.88
2018-08-20T01:58:20.601Z,74.27
2018-08-20T01:59:30.692Z,74.27
2018-08-20T02:00:40.784Z,73.97
2018-08-20T02:01:50.391Z,73.97
2018-08-20T02:03:00.515Z,73.78
2018-08-20T02:04:10.349Z,74.27
2018-08-20T02:05:20.164Z,73.88
2018-08-20T02:06:30.047Z,74.27
2018-08-20T02:07:39.855Z,74.07
2018-08-20T02:08:49.404Z,74.27
2018-08-20T02:09:58.695Z,74.07
2018-08-20T02:11:08.778Z,74.07
2018-08-20T02:12:18.872Z,73.97
2018-08-20T02:13:28.681Z,73.97
2018-08-20T02:14:38.753Z,74.07
2018-08-20T02:15:48.847Z,73.97
2018-08-20T02:16:58.413Z,74.07
2018-08-20T02:18:08.547Z,73.88
2018-08-20T02:19:18.616Z,74.23
2018-08-20T02:20:28.182Z,74.07
2018-08-20T02:21:38.247Z,74.07
2018-08-20T02:22:47.802Z,73.74
2018-08-20T02:23:57.626Z,74.27
2018-08-20T02:25:07.182Z,74.07
2018-08-20T02:26:17.010Z,73.97
2018-08-20T02:27:27.084Z,73.97
2018-08-20T02:28:37.157Z,73.3
2018-08-20T02:29:47.033Z,73.3
2018-08-20T02:30:57.104Z,73.49
2018-08-20T02:32:06.980Z,73.88
2018-08-20T02:33:17.056Z,74.07
2018-08-20T02:34:26.880Z,73.36
2018-08-20T02:35:37.006Z,73.84
2018-08-20T02:36:46.828Z,74.13
2018-08-20T02:37:56.915Z,74.04
2018-08-20T02:39:06.999Z,73.94
2018-08-20T02:40:17.094Z,74.23
2018-08-20T02:41:27.177Z,73.94
2018-08-20T02:42:37.257Z,74.23
2018-08-20T02:43:47.377Z,74.04
2018-08-20T02:44:57.463Z,74.13
2018-08-20T02:46:07.552Z,74.04
2018-08-20T02:47:17.697Z,74.13
2018-08-20T02:48:27.260Z,74.13
2018-08-20T02:49:37.106Z,74.13
2018-08-20T02:50:46.920Z,74.23
2018-08-20T02:51:56.983Z,73.94
2018-08-20T02:53:06.793Z,73.94
2018-08-20T02:54:16.868Z,73.84
2018-08-20T02:55:26.948Z,74.23
2018-08-20T02:56:37.043Z,74.13
2018-08-20T02:57:47.147Z,74.23
2018-08-20T02:58:57.233Z,73.9
2018-08-20T03:00:07.324Z,73.26
2018-08-20T03:01:17.409Z,74.23
2018-08-20T03:02:27.497Z,73.94
2018-08-20T03:34:48.947Z,69.19
2018-08-20T03:35:59.029Z,68.8
2018-08-20T03:37:09.097Z,69.48
2018-08-20T03:38:19.173Z,70.73
2018-08-20T03:39:29.257Z,70.73
2018-08-20T03:40:39.111Z,71.41
2018-08-20T03:41:48.928Z,71.89
2018-08-20T03:42:59.007Z,71.6
2018-08-20T03:44:08.814Z,72.56
2018-08-20T03:45:19.132Z,72.99
2018-08-20T03:46:29.266Z,72.79
2018-08-20T03:47:39.333Z,72.89
2018-08-20T03:48:49.413Z,72.89
2018-08-20T03:49:58.951Z,73.41
2018-08-20T03:51:08.760Z,73.69
2018-08-20T03:52:18.818Z,73.41
2018-08-20T03:53:28.906Z,73.41
2018-08-20T03:54:38.973Z,73.54
2018-08-20T03:55:49.052Z,73.35
2018-08-20T03:56:58.592Z,73.35
2018-08-20T03:58:08.718Z,73.25
2018-08-20T03:59:18.547Z,73.06
2018-08-20T04:00:27.842Z,73.83
2018-08-20T04:01:37.140Z,73.73
2018-08-20T04:02:46.695Z,73.25
2018-08-20T04:03:56.515Z,73.77
2018-08-20T04:05:06.473Z,73.09
2018-08-20T04:06:16.890Z,73.19
2018-08-20T04:07:26.716Z,73.38
2018-08-20T04:08:36.821Z,73.28
2018-08-20T04:09:46.650Z,73.48
2018-08-20T04:10:56.726Z,73.28
2018-08-20T04:12:06.811Z,73.48
2018-08-20T04:13:16.907Z,73.52
2018-08-20T04:14:26.996Z,73.32
2018-08-20T04:15:37.073Z,73.61
2018-08-20T04:16:47.196Z,73.71
2018-08-20T04:17:56.999Z,73.61
2018-08-20T04:19:07.086Z,73.52
2018-08-20T04:20:16.895Z,73.32
2018-08-20T04:21:27.006Z,73.03
2018-08-20T04:22:37.098Z,73.22
2018-08-20T04:23:47.185Z,73.22
2018-08-20T04:24:57.277Z,73.36
2018-08-20T04:26:07.373Z,73.36
2018-08-20T04:27:17.233Z,73.26
2018-08-20T04:28:27.305Z,73.36
2018-08-20T04:29:37.374Z,73.46
2018-08-20T04:30:47.657Z,72.78
2018-08-20T04:31:57.741Z,72.97
2018-08-20T04:33:07.600Z,72.88
2018-08-20T04:34:17.670Z,72.78
2018-08-20T04:35:27.491Z,72.97
2018-08-20T04:36:37.697Z,72.68
2018-08-20T04:37:47.804Z,72.62
2018-08-20T04:38:57.888Z,73.1
2018-08-20T04:40:07.813Z,72.91
2018-08-20T04:41:17.874Z,73.01
2018-08-20T04:42:27.952Z,72.81
2018-08-20T04:43:38.033Z,72.91
2018-08-20T04:44:48.207Z,73.04
2018-08-20T04:45:58.292Z,72.46
2018-08-20T04:47:08.129Z,72.27
2018-08-20T04:48:18.215Z,72.75
2018-08-20T04:49:28.301Z,72.75
2018-08-20T04:50:38.241Z,72.85
2018-08-20T04:51:48.731Z,72.66
2018-08-20T04:52:58.878Z,72.36
2018-08-20T04:54:09.011Z,71.88
2018-08-20T04:55:18.847Z,72.21
2018-08-20T04:56:28.982Z,72.4
2018-08-20T04:57:39.066Z,72.3
2018-08-20T04:58:48.609Z,72.02
2018-08-20T04:59:58.688Z,71.92
2018-08-20T05:01:08.750Z,72.21
2018-08-20T05:02:18.877Z,72.11
2018-08-20T05:03:28.689Z,71.86
2018-08-20T05:04:38.503Z,70.98
2018-08-20T05:05:48.585Z,70.76
2018-08-20T05:06:58.691Z,70.12
2018-08-20T05:08:08.787Z,69.09
2018-08-20T05:09:18.886Z,68.38
2018-08-20T05:10:28.972Z,68.32
2018-08-20T05:11:39.061Z,68.35
2018-08-20T05:12:49.136Z,67.7
2018-08-20T05:13:59.013Z,67.73
2018-08-20T05:15:08.838Z,67.38
2018-08-20T05:16:18.935Z,67.12
2018-08-20T05:17:29.017Z,67.25
2018-08-20T05:18:39.101Z,66.6
2018-08-20T05:19:49.297Z,66.93
2018-08-20T05:20:59.107Z,67.12
2018-08-20T05:22:09.206Z,67.12
2018-08-20T05:23:19.284Z,67.35
2018-08-20T05:24:29.370Z,67.54
2018-08-20T05:25:39.309Z,67.44
2018-08-20T05:26:49.527Z,67.58
2018-08-20T05:27:59.424Z,67.97
2018-08-20T05:29:09.560Z,68.1
2018-08-20T05:30:19.765Z,67.9
2018-08-20T05:31:29.835Z,68
2018-08-20T05:32:39.669Z,67.8
2018-08-20T05:33:49.749Z,68.42
2018-08-20T05:34:59.580Z,67.83
2018-08-20T05:36:09.679Z,68.13
2018-08-20T05:37:19.755Z,68.03
2018-08-20T05:38:29.601Z,68.42
2018-08-20T05:39:39.676Z,68.65
2018-08-20T05:40:49.792Z,68.65
2018-08-20T05:41:59.898Z,68.95
2018-08-20T05:43:10.015Z,68.85
2018-08-20T05:44:20.089Z,68.36
2018-08-20T05:45:30.142Z,68.75
2018-08-20T05:46:40.232Z,68.68
2018-08-20T05:47:50.068Z,68.68
2018-08-20T05:49:00.360Z,69.18
2018-08-20T05:50:10.311Z,69.6
2018-08-20T05:51:20.374Z,71.12
2018-08-20T05:52:30.545Z,71.35
2018-08-20T05:53:40.339Z,72.23
2018-08-20T05:54:50.516Z,72
2018-08-20T05:56:00.609Z,71.41
2018-08-20T05:57:10.680Z,72
2018-08-20T05:58:20.765Z,72.45
2018-08-20T05:59:30.843Z,72.71
2018-08-20T06:00:40.911Z,72.61
2018-08-20T06:01:50.982Z,72.86
2018-08-20T06:03:01.090Z,72.96
2018-08-20T06:04:10.891Z,72.86
2018-08-20T06:05:20.712Z,71.54
2018-08-20T06:06:30.782Z,71.54
2018-08-20T06:07:40.868Z,70.79
2018-08-20T06:08:51.148Z,71.08
2018-08-20T06:10:01.233Z,71.47
2018-08-20T06:11:11.311Z,71.64
2018-08-20T06:12:21.115Z,71.89
2018-08-20T06:13:31.205Z,72.47
2018-08-20T06:14:41.370Z,72.28
2018-08-20T06:15:51.483Z,72.25
2018-08-20T06:17:01.594Z,72.44
2018-08-20T06:18:11.431Z,72.34
2018-08-20T06:19:21.554Z,72.25
2018-08-20T06:20:31.375Z,72.25
2018-08-20T06:21:41.194Z,72.25
2018-08-20T06:22:51.288Z,72.44
2018-08-20T06:24:01.122Z,72.34
2018-08-20T06:25:11.115Z,72.34
2018-08-20T06:26:21.199Z,71.76
2018-08-20T06:27:31.276Z,71.47
2018-08-20T06:28:41.472Z,71.47
2018-08-20T06:29:51.465Z,71.56
2018-08-20T06:31:01.301Z,71.47
2018-08-20T06:32:11.432Z,71.66
2018-08-20T06:33:20.990Z,71.66
2018-08-20T06:34:31.072Z,71.5
2018-08-20T06:35:40.972Z,71.95
2018-08-20T06:36:51.238Z,71.99
2018-08-20T06:38:01.329Z,71.37
2018-08-20T06:39:11.406Z,71.7
2018-08-20T06:40:21.230Z,71.7
2018-08-20T06:41:31.111Z,71.8
2018-08-20T06:42:41.104Z,71.8
2018-08-20T06:43:50.929Z,71.7
2018-08-20T06:45:01.000Z,71.41
2018-08-20T06:46:10.825Z,71.21
2018-08-20T06:47:20.657Z,71.11
2018-08-20T06:48:30.477Z,71.44
2018-08-20T06:49:40.639Z,71.34
2018-08-20T06:50:50.708Z,71.15
2018-08-20T06:52:00.822Z,70.95
2018-08-20T06:53:10.884Z,70.95
2018-08-20T06:54:20.957Z,70.86
2018-08-20T06:55:31.267Z,70.95
2018-08-20T06:56:41.339Z,71.15
2018-08-20T06:57:51.400Z,71.18
2018-08-20T06:59:01.216Z,71.28
2018-08-20T07:00:11.041Z,71.47
2018-08-20T07:01:20.854Z,71.28
2018-08-20T07:02:30.935Z,71.47
2018-08-20T07:03:40.770Z,71.57
2018-08-20T07:04:50.877Z,71.41
2018-08-20T07:06:00.962Z,71.51
2018-08-20T07:07:10.795Z,71.31
2018-08-20T07:08:20.881Z,71.12
2018-08-20T07:09:30.977Z,71.12
2018-08-20T07:10:41.066Z,71.31
2018-08-20T07:11:51.238Z,71.02
2018-08-20T07:13:01.616Z,71.02
2018-08-20T07:14:11.718Z,71.22
2018-08-20T07:15:21.840Z,71.22
2018-08-20T07:16:31.940Z,70.83
2018-08-20T07:17:42.020Z,71.06
2018-08-20T07:18:52.093Z,71.15
2018-08-20T07:20:01.902Z,71.15
2018-08-20T07:21:11.991Z,71.06
2018-08-20T07:22:22.076Z,70.76
2018-08-20T07:23:32.466Z,71.09
2018-08-20T07:24:42.955Z,70.8
2018-08-20T07:25:52.752Z,70.8
2018-08-20T07:27:02.845Z,71.09
2018-08-20T07:28:12.911Z,71
2018-08-20T07:29:23.027Z,71.03
2018-08-20T07:30:33.099Z,71.29
2018-08-20T07:31:42.907Z,71
2018-08-20T07:32:53.047Z,70.93
2018-08-20T07:34:03.387Z,70.83
2018-08-20T07:35:13.250Z,70.73
2018-08-20T07:36:23.340Z,70.18
2018-08-20T07:37:33.163Z,71.26
2018-08-20T07:38:42.454Z,70.28
2018-08-20T07:39:52.544Z,70.28
2018-08-20T07:41:03.679Z,70.48
2018-08-20T07:42:13.509Z,70.57
2018-08-20T07:43:23.674Z,70.67
2018-08-20T07:44:33.759Z,70.48
2018-08-20T07:45:43.865Z,70.21
2018-08-20T07:46:53.946Z,71.1
2018-08-20T07:48:04.057Z,70.7
2018-08-20T07:49:14.141Z,70.51
2018-08-20T07:50:24.247Z,70.51
2018-08-20T07:51:34.318Z,70.8
2018-08-20T07:52:44.132Z,70.15
2018-08-20T07:53:54.223Z,70.84
2018-08-20T07:55:04.049Z,70.45
2018-08-20T07:56:13.923Z,70.54
2018-08-20T07:57:24.015Z,70.54
2018-08-20T07:58:34.094Z,70.45
2018-08-20T07:59:44.190Z,70.54
2018-08-20T08:00:54.285Z,70.74
2018-08-20T08:02:04.426Z,70.78
2018-08-20T08:03:14.518Z,70.78
2018-08-20T08:04:24.582Z,70.68
2018-08-20T08:05:34.656Z,70.97
2018-08-20T08:06:44.512Z,70.9
2018-08-20T08:07:54.697Z,70.81
2018-08-20T08:09:04.527Z,70.9
2018-08-20T08:10:14.619Z,71.04
2018-08-20T08:11:24.711Z,70.51
2018-08-20T08:12:34.549Z,70.55
2018-08-20T08:13:44.683Z,70.55
2018-08-20T08:14:54.490Z,70.84
2018-08-20T08:16:04.326Z,70.94
2018-08-20T08:17:14.397Z,70.84
2018-08-20T08:18:24.478Z,71.04
2018-08-20T08:19:34.609Z,70.84
2018-08-20T08:20:44.174Z,70.78
2018-08-20T08:21:54.251Z,70.68
2018-08-20T08:23:04.321Z,70.68
2018-08-20T08:24:14.128Z,70.68
2018-08-20T08:25:23.680Z,70.68
2018-08-20T08:26:33.991Z,70.78
2018-08-20T08:27:43.952Z,70.68
2018-08-20T08:28:54.041Z,70.88
2018-08-20T08:30:04.126Z,71.17
2018-08-20T08:31:14.024Z,70.59
2018-08-20T08:32:24.098Z,70.68
2018-08-20T08:33:34.187Z,70.78
2018-08-20T08:34:44.277Z,70.88
2018-08-20T08:35:54.379Z,70.78
2018-08-20T08:37:04.213Z,70.59
2018-08-20T08:38:14.480Z,70.59
2018-08-20T08:39:24.039Z,70.72
2018-08-20T08:40:34.135Z,70.62
2018-08-20T08:41:44.225Z,70.91
2018-08-20T08:42:54.316Z,70.91
2018-08-20T08:44:04.153Z,70.91
2018-08-20T08:45:14.205Z,70.62
2018-08-20T08:46:24.297Z,70.81
2018-08-20T08:47:34.103Z,71.01
2018-08-20T08:48:43.919Z,70.85
2018-08-20T08:49:54.009Z,70.85
2018-08-20T08:51:04.172Z,70.85
2018-08-20T08:52:14.230Z,70.75
2018-08-20T08:53:24.062Z,70.75
2018-08-20T08:54:34.151Z,70.75
2018-08-20T08:55:43.987Z,70.65
2018-08-20T08:56:54.063Z,71.14
2018-08-20T08:58:04.229Z,71.14
2018-08-20T08:59:14.044Z,71.04
2018-08-20T09:00:23.963Z,70.78
2018-08-20T09:01:33.892Z,70.65
2018-08-20T09:02:43.449Z,71.08
2018-08-20T09:03:53.513Z,70.68
2018-08-20T09:05:03.583Z,71.18
2018-08-20T09:06:13.690Z,70.98
2018-08-20T09:07:23.797Z,70.72
2018-08-20T09:08:33.887Z,70.92
2018-08-20T09:09:43.734Z,70.62
2018-08-20T09:10:53.807Z,70.92
2018-08-20T09:12:03.880Z,70.72
2018-08-20T09:13:13.958Z,70.86
2018-08-20T09:14:24.030Z,70.86
2018-08-20T09:15:34.106Z,70.86
2018-08-20T09:16:43.926Z,70.76
2018-08-20T09:17:54.059Z,70.95
2018-08-20T09:19:03.894Z,70.86
2018-08-20T09:20:13.977Z,70.86
2018-08-20T09:21:23.802Z,71.05
2018-08-20T09:22:33.649Z,70.66
2018-08-20T09:23:43.770Z,70.86
2018-08-20T09:24:53.866Z,70.79
2018-08-20T09:26:03.958Z,70.79
2018-08-20T09:27:13.792Z,70.79
2018-08-20T09:28:23.642Z,70.79
2018-08-20T09:29:33.481Z,70.89
2018-08-20T09:30:43.305Z,70.79
2018-08-20T09:31:53.117Z,71.09
2018-08-20T09:33:03.298Z,70.79
2018-08-20T09:34:13.383Z,70.5
2018-08-20T09:35:23.467Z,71.19
2018-08-20T09:36:33.279Z,70.98
2018-08-20T09:37:43.409Z,70.79
2018-08-20T09:38:53.220Z,71.09
2018-08-20T09:40:03.332Z,70.89
2018-08-20T09:41:13.431Z,71.12
2018-08-20T09:42:23.532Z,70.89
2018-08-20T09:43:33.609Z,71.12
2018-08-20T09:44:43.841Z,71.12
2018-08-20T09:45:53.931Z,71.02
2018-08-20T09:47:04.019Z,71.12
2018-08-20T09:48:13.856Z,70.83
2018-08-20T09:49:23.985Z,70.92
2018-08-20T09:50:34.074Z,71.12
2018-08-20T09:51:44.140Z,70.83
2018-08-20T09:52:54.225Z,71.06
2018-08-20T09:54:04.304Z,71.02
2018-08-20T09:55:14.401Z,71.15
2018-08-20T09:56:24.521Z,71.15
2018-08-20T09:57:34.608Z,71.15
2018-08-20T09:58:45.505Z,71.35
2018-08-20T09:59:55.588Z,71.35
2018-08-20T10:01:05.662Z,71.35
2018-08-20T10:02:15.480Z,71.35
2018-08-20T10:03:25.304Z,70.86
2018-08-20T10:04:35.386Z,70.96
2018-08-20T10:05:45.210Z,71.06
2018-08-20T10:06:55.307Z,70.96
2018-08-20T10:08:05.409Z,70.89
2018-08-20T10:09:14.725Z,71.19
2018-08-20T10:10:24.605Z,71.29
2018-08-20T10:11:34.675Z,71.19
2018-08-20T10:12:44.504Z,71.39
2018-08-20T10:13:54.076Z,71.29
2018-08-20T10:15:04.152Z,71.19
2018-08-20T10:16:13.997Z,71.19
2018-08-20T10:17:23.809Z,71.48
2018-08-20T10:18:33.820Z,71.29
2018-08-20T10:19:44.071Z,71.29
2018-08-20T10:20:54.152Z,71.29
2018-08-20T10:22:04.037Z,71.03
2018-08-20T10:23:14.134Z,70.93
2018-08-20T10:24:24.230Z,71.52
2018-08-20T10:25:34.178Z,71.32
2018-08-20T10:26:44.276Z,71.52
2018-08-20T10:27:54.375Z,71.22
2018-08-20T10:29:04.492Z,71.26
2018-08-20T10:30:14.580Z,70.86
2018-08-20T10:31:24.712Z,70.96
2018-08-20T10:32:34.526Z,70.67
2018-08-20T10:33:44.626Z,70.86
2018-08-20T10:34:54.720Z,70.17
2018-08-20T10:36:04.863Z,70.6
2018-08-20T10:37:15.003Z,70.6
2018-08-20T10:38:24.822Z,70.7
2018-08-20T10:39:34.651Z,70.7
2018-08-20T10:40:44.762Z,70.5
2018-08-20T10:41:54.857Z,70.21
2018-08-20T10:43:04.937Z,70.64
2018-08-20T10:44:14.492Z,70.64
2018-08-20T10:45:24.588Z,70.64
2018-08-20T10:46:34.427Z,70.64
2018-08-20T10:47:44.509Z,70.64
2018-08-20T10:48:54.338Z,70.93
2018-08-20T10:50:04.203Z,70.34
2018-08-20T10:51:14.741Z,70.37
2018-08-20T10:52:24.818Z,69.98
2018-08-20T10:53:34.910Z,70.08
2018-08-20T10:54:45.046Z,70.28
2018-08-20T10:55:54.348Z,70.41
2018-08-20T10:57:03.923Z,70.08
2018-08-20T10:58:13.767Z,70.11
2018-08-20T10:59:23.611Z,70.41
2018-08-20T11:00:33.277Z,70.51
2018-08-20T11:01:43.347Z,70.21
2018-08-20T11:02:53.431Z,70.51
2018-08-20T11:04:03.319Z,70.51
2018-08-20T11:05:13.444Z,70.51
2018-08-20T11:06:23.580Z,70.8
2018-08-20T11:07:33.688Z,70.31
2018-08-20T11:08:43.509Z,70.15
2018-08-20T11:09:53.637Z,70.34
2018-08-20T11:11:03.985Z,70.34
2018-08-20T11:12:13.864Z,70.15
2018-08-20T11:13:23.971Z,70.15
2018-08-20T11:14:33.810Z,70.15
2018-08-20T11:15:43.657Z,70.48
2018-08-20T11:16:53.746Z,70.64
2018-08-20T11:18:03.883Z,70.38
2018-08-20T11:19:13.986Z,70.57
2018-08-20T11:20:24.139Z,70.87
2018-08-20T11:21:34.222Z,70.67
2018-08-20T11:22:44.329Z,70.67
2018-08-20T11:23:54.219Z,70.38
2018-08-20T11:25:03.792Z,70.48
2018-08-20T11:26:14.159Z,70.38
2018-08-20T11:27:24.286Z,70.18
2018-08-20T11:28:34.522Z,70.28
2018-08-20T11:29:44.352Z,70.28
2018-08-20T11:30:54.444Z,70.21
2018-08-20T11:32:04.526Z,70.31
2018-08-20T11:33:14.613Z,70.28
2018-08-20T11:34:24.683Z,70.71
2018-08-20T11:35:34.777Z,70.41
2018-08-20T11:36:45.011Z,70.41
2018-08-20T11:37:55.180Z,70.54
2018-08-20T11:39:05.033Z,70.15
2018-08-20T11:40:15.109Z,70.05
2018-08-20T11:41:24.947Z,69.95
2018-08-20T11:42:35.033Z,69.95
2018-08-20T11:43:45.119Z,70.08
2018-08-20T11:44:54.954Z,70.15
2018-08-20T11:46:04.510Z,70.18
2018-08-20T11:47:14.610Z,70.54
2018-08-20T11:48:24.747Z,70.57
2018-08-20T11:49:34.857Z,70.54
2018-08-20T11:50:44.674Z,70.57
2018-08-20T11:51:54.774Z,70.68
2018-08-20T11:53:04.862Z,70.57
2018-08-20T11:54:14.687Z,70.78
2018-08-20T11:55:24.763Z,70.48
2018-08-20T11:56:34.607Z,70.78
2018-08-20T11:57:44.456Z,70.48
2018-08-20T11:58:54.657Z,70.78
2018-08-20T12:00:05.027Z,70.38
2018-08-20T12:01:14.864Z,70.61
2018-08-20T12:02:24.952Z,70.02
2018-08-20T12:03:35.040Z,70.21
2018-08-20T12:04:45.140Z,70.21
2018-08-20T12:05:54.971Z,70.21
2018-08-20T12:07:04.977Z,70.71
2018-08-20T12:08:15.387Z,70.51
2018-08-20T12:09:25.504Z,70.61
2018-08-20T12:10:35.052Z,70.61
2018-08-20T12:11:45.127Z,70.61
2018-08-20T12:12:54.418Z,70.51
2018-08-20T12:14:04.251Z,70.91
2018-08-20T12:15:14.401Z,70.42
2018-08-20T12:16:24.606Z,70.18
2018-08-20T12:17:34.728Z,70.42
2018-08-20T12:18:44.864Z,70.78
2018-08-20T12:19:54.941Z,70.57
2018-08-20T12:21:05.034Z,70.68
2018-08-20T12:22:15.177Z,70.48
2018-08-20T12:23:25.554Z,70.81
2018-08-20T12:24:35.659Z,70.57
2018-08-20T12:25:45.757Z,70.97
2018-08-20T12:26:55.850Z,70.68
2018-08-20T12:28:05.955Z,70.57
2018-08-20T12:29:16.290Z,70.61
2018-08-20T12:30:26.363Z,70.42
2018-08-20T12:31:36.485Z,70.42
2018-08-20T12:32:46.560Z,70.31
2018-08-20T12:33:56.640Z,70.71
2018-08-20T12:35:06.732Z,70.42
2018-08-20T12:36:16.822Z,70.61
2018-08-20T12:37:26.921Z,70.51
2018-08-20T12:38:36.994Z,70.65
2018-08-20T12:39:47.184Z,70.71
2018-08-20T12:40:57.319Z,70.42
2018-08-20T12:42:07.170Z,70.61
2018-08-20T12:43:17.320Z,70.42
2018-08-20T12:44:27.147Z,70.42
2018-08-20T12:45:36.973Z,71.01
2018-08-20T12:46:47.117Z,70.51
2018-08-20T12:47:56.930Z,70.51
2018-08-20T12:49:07.101Z,70.51
2018-08-20T12:50:17.190Z,70.71
2018-08-20T12:51:27.285Z,70.54
2018-08-20T12:52:37.366Z,70.35
2018-08-20T12:53:47.449Z,70.15
2018-08-20T12:54:57.271Z,69.95
2018-08-20T12:56:07.360Z,70.15
2018-08-20T12:57:17.193Z,69.85
2018-08-20T12:58:27.290Z,69.95
2018-08-20T12:59:37.389Z,70.05
2018-08-20T13:00:47.643Z,70.05
2018-08-20T13:01:58.009Z,70.05
2018-08-20T13:03:08.090Z,70.18
2018-08-20T13:04:18.183Z,70.15
2018-08-20T13:05:28.294Z,70.38
2018-08-20T13:06:38.385Z,69.69
2018-08-20T13:07:48.463Z,70.09
2018-08-20T13:08:58.514Z,69.69
2018-08-20T13:10:08.945Z,70.09
2018-08-20T13:11:19.043Z,70.18
2018-08-20T13:12:29.035Z,69.98
2018-08-20T13:13:38.603Z,70.18
2018-08-20T13:14:48.702Z,70.28
2018-08-20T13:15:58.397Z,70.18
2018-08-20T13:17:09.669Z,70.18
2018-08-20T13:18:19.766Z,70.38
2018-08-20T13:19:29.698Z,70.09
2018-08-20T13:20:39.792Z,69.98
2018-08-20T13:21:49.649Z,70.35
2018-08-20T13:22:59.458Z,70.31
2018-08-20T13:24:09.334Z,70.81
2018-08-20T13:25:19.435Z,70.42
2018-08-20T13:26:29.525Z,70.51
2018-08-20T13:27:39.615Z,70.51
2018-08-20T13:28:49.698Z,70.91
2018-08-20T13:29:59.581Z,70.61
2018-08-20T13:31:09.712Z,70.42
2018-08-20T13:32:19.571Z,70.61
2018-08-20T13:33:29.733Z,70.42
2018-08-20T13:34:39.566Z,70.61
2018-08-20T13:35:49.149Z,70.31
2018-08-20T13:36:58.717Z,70.21
2018-08-20T13:38:08.861Z,70.12
2018-08-20T13:39:18.740Z,69.76
2018-08-20T13:40:28.832Z,69.95
2018-08-20T13:41:38.966Z,70.15
2018-08-20T13:42:48.794Z,69.92
2018-08-20T13:43:59.000Z,70.35
2018-08-20T13:45:09.625Z,70.61
2018-08-20T13:46:19.721Z,71.11
2018-08-20T13:47:29.579Z,71.77
2018-08-20T13:48:39.428Z,71.2
2018-08-20T13:49:49.523Z,71.76
2018-08-20T13:50:59.362Z,71.86
2018-08-20T13:52:09.183Z,71.76
2018-08-20T13:53:19.340Z,71.92
2018-08-20T13:54:29.431Z,71.98
2018-08-20T13:55:39.523Z,72.38
2018-08-20T13:56:49.679Z,72.09
2018-08-20T13:57:59.524Z,72.25
2018-08-20T13:59:09.618Z,72.25
2018-08-20T14:00:19.701Z,71.95
2018-08-20T14:01:29.784Z,71.75
2018-08-20T14:02:39.854Z,72.25
2018-08-20T14:03:49.970Z,72.22
2018-08-20T14:05:00.072Z,72.31
2018-08-20T14:06:09.628Z,72.11
2018-08-20T14:07:19.450Z,71.62
2018-08-20T14:08:29.555Z,72.05
2018-08-20T14:09:39.395Z,71.52
2018-08-20T14:10:49.481Z,71.49
2018-08-20T14:11:59.328Z,71.39
2018-08-20T14:13:09.476Z,71.82
2018-08-20T14:14:19.322Z,71.49
2018-08-20T14:15:29.511Z,71.29
2018-08-20T14:16:39.856Z,71.39
2018-08-20T14:17:49.417Z,71.52
2018-08-20T14:18:59.236Z,71.88
2018-08-20T14:20:09.372Z,72.18
2018-08-20T14:21:19.465Z,72.14
2018-08-20T14:22:29.637Z,72.14
2018-08-20T14:23:39.734Z,72.24
2018-08-20T14:24:49.601Z,71.85
2018-08-20T14:25:59.736Z,71.65
2018-08-20T14:27:09.818Z,71.75
2018-08-20T14:28:19.307Z,71.65
2018-08-20T14:29:29.401Z,71.29
2018-08-20T14:30:39.692Z,70.8
2018-08-20T14:31:49.868Z,71.33
2018-08-20T14:33:00.019Z,70.83
2018-08-20T14:34:09.622Z,71.13
2018-08-20T14:35:19.728Z,71.03
2018-08-20T14:36:29.730Z,70.54
2018-08-20T14:37:40.394Z,70.67
2018-08-20T14:38:50.497Z,70.57
2018-08-20T14:40:00.893Z,69.98
2018-08-20T14:41:10.728Z,70.31
2018-08-20T14:42:20.950Z,70.21
2018-08-20T14:43:31.039Z,70.51
2018-08-20T14:44:41.152Z,70.41
2018-08-20T14:45:51.281Z,70.41
2018-08-20T14:47:01.377Z,70.01
2018-08-20T14:48:11.469Z,69.95
2018-08-20T14:49:21.301Z,70.04
2018-08-20T14:50:31.381Z,70.04
2018-08-20T14:51:41.463Z,69.85
2018-08-20T14:52:51.580Z,69.45
2018-08-20T14:54:01.679Z,70.18
2018-08-20T14:55:11.764Z,70.25
2018-08-20T14:56:21.864Z,70.04
2018-08-20T14:57:31.956Z,69.95
2018-08-20T14:58:42.052Z,70.28
2018-08-20T14:59:52.149Z,69.68
2018-08-20T15:01:02.233Z,70.18
2018-08-20T15:02:12.071Z,70.08
2018-08-20T15:03:22.200Z,70.48
2018-08-20T15:04:32.028Z,70.57
2018-08-20T15:05:42.117Z,70.64
2018-08-20T15:06:52.213Z,70.48
2018-08-20T15:08:02.321Z,70.28
2018-08-20T15:09:12.611Z,70.28
2018-08-20T15:10:23.341Z,70.48
2018-08-20T15:11:33.167Z,70.34
2018-08-20T15:12:43.266Z,70.28
2018-08-20T15:13:53.092Z,70.48
2018-08-20T15:15:03.161Z,70.18
2018-08-20T15:16:13.457Z,70.74
2018-08-20T15:17:23.549Z,71.1
2018-08-20T15:18:33.639Z,71.59
2018-08-20T15:19:43.747Z,70.31
2018-08-20T15:20:53.836Z,70.51
2018-08-20T15:22:03.656Z,70.84
2018-08-20T15:23:13.764Z,70.64
2018-08-20T15:24:23.864Z,70.74
2018-08-20T15:25:33.728Z,70.74
2018-08-20T15:26:43.510Z,70.34
2018-08-20T15:27:53.614Z,71.2
2018-08-20T15:29:03.718Z,71.69
2018-08-20T15:30:13.819Z,71.39
2018-08-20T15:31:23.938Z,70.9
2018-08-20T15:32:33.903Z,70.61
2018-08-20T15:33:44.318Z,70.61
2018-08-20T15:34:54.173Z,70.8